Terminal Aerodrome Forecast
Issued by NWS

Home | Current Version | Previous Version | Text Only | Print | Product List | Glossary On
Versions: 1 2 3 4 5 6 7 8 9 10 11 12 13 14 15 16 17 18 19 20 21 22 23 24 25 26 27 28 29 30 31 32 33 34 35 36 37 38
000
FTUS43 KDMX 032321
TAFMCW
TAF
KMCW 032321Z 0400/0424 15006KT P6SM SCT120
     FM040800 15004KT 3SM BR SCT120
     FM041000 15004KT 1 1/2SM BR SCT002
      TEMPO 0411/0413 1/2SM FG VV002
     FM041400 17008KT P6SM SCT120=

USA.gov is the U.S. government's official web portal to all federal, state and local government web resources and services.